sensor_id;sensor_type;location;lat;lon;timestamp;temperature;humidity
14600;DHT22;7386;45.586;12.854;2022-10-17T00:01:04;15.50;99.90
14600;DHT22;7386;45.586;12.854;2022-10-17T00:03:32;15.50;99.90
14600;DHT22;7386;45.586;12.854;2022-10-17T00:06:04;15.40;99.90
14600;DHT22;7386;45.586;12.854;2022-10-17T00:08:34;15.40;99.90
14600;DHT22;7386;45.586;12.854;2022-10-17T00:11:05;15.40;99.90
14600;DHT22;7386;45.586;12.854;2022-10-17T00:13:35;15.40;99.90
14600;DHT22;7386;45.586;12.854;2022-10-17T00:16:03;15.40;99.90
14600;DHT22;7386;45.586;12.854;2022-10-17T00:18:32;15.40;99.90
14600;DHT22;7386;45.586;12.854;2022-10-17T00:21:00;15.30;99.90
14600;DHT22;7386;45.586;12.854;2022-10-17T00:23:28;15.30;99.90
14600;DHT22;7386;45.586;12.854;2022-10-17T00:25:58;15.30;99.90
14600;DHT22;7386;45.586;12.854;2022-10-17T00:28:26;15.30;99.90
14600;DHT22;7386;45.586;12.854;2022-10-17T00:30:57;15.20;99.90
14600;DHT22;7386;45.586;12.854;2022-10-17T00:33:26;15.20;99.90
14600;DHT22;7386;45.586;12.854;2022-10-17T00:36:02;15.20;99.90
14600;DHT22;7386;45.586;12.854;2022-10-17T00:38:31;15.20;99.90
14600;DHT22;7386;45.586;12.854;2022-10-17T00:40:59;15.20;99.90
14600;DHT22;7386;45.586;12.854;2022-10-17T00:43:28;15.10;99.90
14600;DHT22;7386;45.586;12.854;2022-10-17T00:45:58;15.10;99.90
14600;DHT22;7386;45.586;12.854;2022-10-17T00:48:26;15.00;99.90
14600;DHT22;7386;45.586;12.854;2022-10-17T00:50:54;15.00;99.90
14600;DHT22;7386;45.586;12.854;2022-10-17T00:53:22;15.00;99.90
14600;DHT22;7386;45.586;12.854;2022-10-17T00:55:52;15.00;99.90
14600;DHT22;7386;45.586;12.854;2022-10-17T00:58:21;15.00;99.90
14600;DHT22;7386;45.586;12.854;2022-10-17T01:00:49;15.00;99.90
14600;DHT22;7386;45.586;12.854;2022-10-17T01:03:19;15.00;99.90
14600;DHT22;7386;45.586;12.854;2022-10-17T01:05:47;15.00;99.90
14600;DHT22;7386;45.586;12.854;2022-10-17T01:08:15;14.90;99.90
14600;DHT22;7386;45.586;12.854;2022-10-17T01:10:50;14.90;99.90
14600;DHT22;7386;45.586;12.854;2022-10-17T01:13:24;14.90;99.90
14600;DHT22;7386;45.586;12.854;2022-10-17T01:16:01;14.90;99.90
14600;DHT22;7386;45.586;12.854;2022-10-17T01:18:46;14.90;99.90
14600;DHT22;7386;45.586;12.854;2022-10-17T01:21:36;14.90;99.90
14600;DHT22;7386;45.586;12.854;2022-10-17T01:24:46;14.90;99.90
14600;DHT22;7386;45.586;12.854;2022-10-17T01:27:35;14.90;99.90
14600;DHT22;7386;45.586;12.854;2022-10-17T01:33:13;14.90;99.90
14600;DHT22;7386;45.586;12.854;2022-10-17T01:35:49;14.90;99.90
14600;DHT22;7386;45.586;12.854;2022-10-17T01:38:22;14.90;99.90
14600;DHT22;7386;45.586;12.854;2022-10-17T01:40:56;14.90;99.90
14600;DHT22;7386;45.586;12.854;2022-10-17T01:43:33;14.90;99.90
14600;DHT22;7386;45.586;12.854;2022-10-17T01:46:09;14.90;99.90
14600;DHT22;7386;45.586;12.854;2022-10-17T01:48:42;15.00;99.90
14600;DHT22;7386;45.586;12.854;2022-10-17T01:51:15;15.00;99.90
14600;DHT22;7386;45.586;12.854;2022-10-17T01:53:49;15.10;99.90
14600;DHT22;7386;45.586;12.854;2022-10-17T01:56:19;15.10;99.90
14600;DHT22;7386;45.586;12.854;2022-10-17T02:01:41;15.10;99.90
14600;DHT22;7386;45.586;12.854;2022-10-17T02:04:12;15.20;99.90
14600;DHT22;7386;45.586;12.854;2022-10-17T02:06:42;15.10;99.90
14600;DHT22;7386;45.586;12.854;2022-10-17T02:09:19;15.20;99.90
14600;DHT22;7386;45.586;12.854;2022-10-17T02:11:59;15.20;99.90
14600;DHT22;7386;45.586;12.854;2022-10-17T02:14:39;15.20;99.90
14600;DHT22;7386;45.586;12.854;2022-10-17T02:17:14;15.10;99.90
14600;DHT22;7386;45.586;12.854;2022-10-17T02:19:54;15.10;99.90
14600;DHT22;7386;45.586;12.854;2022-10-17T02:22:32;15.10;99.90
14600;DHT22;7386;45.586;12.854;2022-10-17T02:25:08;15.10;99.90
14600;DHT22;7386;45.586;12.854;2022-10-17T02:27:43;15.10;99.90
14600;DHT22;7386;45.586;12.854;2022-10-17T02:30:22;15.10;99.90
14600;DHT22;7386;45.586;12.854;2022-10-17T02:32:57;15.00;99.90
14600;DHT22;7386;45.586;12.854;2022-10-17T02:35:35;15.00;99.90
14600;DHT22;7386;45.586;12.854;2022-10-17T02:38:06;15.00;99.90
14600;DHT22;7386;45.586;12.854;2022-10-17T02:40:35;14.90;99.90
14600;DHT22;7386;45.586;12.854;2022-10-17T02:43:04;14.90;99.90
14600;DHT22;7386;45.586;12.854;2022-10-17T02:45:33;14.90;99.90
14600;DHT22;7386;45.586;12.854;2022-10-17T02:48:05;14.90;99.90
14600;DHT22;7386;45.586;12.854;2022-10-17T02:50:45;14.80;99.90
14600;DHT22;7386;45.586;12.854;2022-10-17T02:53:22;14.80;99.90
14600;DHT22;7386;45.586;12.854;2022-10-17T02:55:55;14.80;99.90
14600;DHT22;7386;45.586;12.854;2022-10-17T02:58:29;14.70;99.90
14600;DHT22;7386;45.586;12.854;2022-10-17T03:00:59;14.70;99.90
14600;DHT22;7386;45.586;12.854;2022-10-17T03:03:30;14.70;99.90
14600;DHT22;7386;45.586;12.854;2022-10-17T03:06:00;14.70;99.90
14600;DHT22;7386;45.586;12.854;2022-10-17T03:08:28;14.70;99.90
14600;DHT22;7386;45.586;12.854;2022-10-17T03:10:56;14.60;99.90
14600;DHT22;7386;45.586;12.854;2022-10-17T03:13:25;14.60;99.90
14600;DHT22;7386;45.586;12.854;2022-10-17T03:15:53;14.60;99.90
14600;DHT22;7386;45.586;12.854;2022-10-17T03:18:23;14.50;99.90
14600;DHT22;7386;45.586;12.854;2022-10-17T03:20:51;14.60;99.90
14600;DHT22;7386;45.586;12.854;2022-10-17T03:23:20;14.50;99.90
14600;DHT22;7386;45.586;12.854;2022-10-17T03:25:49;14.50;99.90
14600;DHT22;7386;45.586;12.854;2022-10-17T03:28:17;14.50;99.90
14600;DHT22;7386;45.586;12.854;2022-10-17T03:30:45;14.50;99.90
14600;DHT22;7386;45.586;12.854;2022-10-17T03:33:13;14.40;99.90
14600;DHT22;7386;45.586;12.854;2022-10-17T03:35:42;14.50;99.90
14600;DHT22;7386;45.586;12.854;2022-10-17T03:38:10;14.40;99.90
14600;DHT22;7386;45.586;12.854;2022-10-17T03:40:39;14.40;99.90
14600;DHT22;7386;45.586;12.854;2022-10-17T03:43:08;14.40;99.90
14600;DHT22;7386;45.586;12.854;2022-10-17T03:45:37;14.40;99.90
14600;DHT22;7386;45.586;12.854;2022-10-17T03:48:05;14.40;99.90
14600;DHT22;7386;45.586;12.854;2022-10-17T03:50:34;14.30;99.90
14600;DHT22;7386;45.586;12.854;2022-10-17T03:53:02;14.40;99.90
14600;DHT22;7386;45.586;12.854;2022-10-17T03:55:30;14.40;99.90
14600;DHT22;7386;45.586;12.854;2022-10-17T03:58:00;14.40;99.90
14600;DHT22;7386;45.586;12.854;2022-10-17T04:00:28;14.40;99.90
14600;DHT22;7386;45.586;12.854;2022-10-17T04:02:57;14.30;99.90
14600;DHT22;7386;45.586;12.854;2022-10-17T04:05:25;14.30;99.90
14600;DHT22;7386;45.586;12.854;2022-10-17T04:07:53;14.30;99.90
14600;DHT22;7386;45.586;12.854;2022-10-17T04:10:23;14.30;99.90
14600;DHT22;7386;45.586;12.854;2022-10-17T04:12:51;14.30;99.90
14600;DHT22;7386;45.586;12.854;2022-10-17T04:15:21;14.20;99.90
14600;DHT22;7386;45.586;12.854;2022-10-17T04:17:49;14.30;99.90
14600;DHT22;7386;45.586;12.854;2022-10-17T04:20:17;14.20;99.90
14600;DHT22;7386;45.586;12.854;2022-10-17T04:22:45;14.20;99.90
14600;DHT22;7386;45.586;12.854;2022-10-17T04:25:14;14.20;99.90
14600;DHT22;7386;45.586;12.854;2022-10-17T04:27:42;14.30;99.90
14600;DHT22;7386;45.586;12.854;2022-10-17T04:30:10;14.30;99.90
14600;DHT22;7386;45.586;12.854;2022-10-17T04:32:40;14.20;99.90
14600;DHT22;7386;45.586;12.854;2022-10-17T04:35:08;14.20;99.90
14600;DHT22;7386;45.586;12.854;2022-10-17T04:37:36;14.20;99.90
14600;DHT22;7386;45.586;12.854;2022-10-17T04:40:06;14.20;99.90
14600;DHT22;7386;45.586;12.854;2022-10-17T04:42:34;14.20;99.90
14600;DHT22;7386;45.586;12.854;2022-10-17T04:45:03;14.20;99.90
14600;DHT22;7386;45.586;12.854;2022-10-17T04:47:32;14.20;99.90
14600;DHT22;7386;45.586;12.854;2022-10-17T04:50:01;14.20;99.90
14600;DHT22;7386;45.586;12.854;2022-10-17T04:52:30;14.20;99.90
14600;DHT22;7386;45.586;12.854;2022-10-17T04:54:58;14.20;99.90
14600;DHT22;7386;45.586;12.854;2022-10-17T04:57:26;14.20;99.90
14600;DHT22;7386;45.586;12.854;2022-10-17T04:59:55;14.20;99.90
14600;DHT22;7386;45.586;12.854;2022-10-17T05:02:23;14.20;99.90
14600;DHT22;7386;45.586;12.854;2022-10-17T05:04:52;14.20;99.90
14600;DHT22;7386;45.586;12.854;2022-10-17T05:07:21;14.20;99.90
14600;DHT22;7386;45.586;12.854;2022-10-17T05:09:50;14.20;99.90
14600;DHT22;7386;45.586;12.854;2022-10-17T05:12:18;14.20;99.90
14600;DHT22;7386;45.586;12.854;2022-10-17T05:14:46;14.20;99.90
14600;DHT22;7386;45.586;12.854;2022-10-17T05:17:14;14.20;99.90
14600;DHT22;7386;45.586;12.854;2022-10-17T05:19:42;14.10;99.90
14600;DHT22;7386;45.586;12.854;2022-10-17T05:22:10;14.10;99.90
14600;DHT22;7386;45.586;12.854;2022-10-17T05:24:40;14.00;99.90
14600;DHT22;7386;45.586;12.854;2022-10-17T05:27:08;14.00;99.90
14600;DHT22;7386;45.586;12.854;2022-10-17T05:29:36;14.00;99.90
14600;DHT22;7386;45.586;12.854;2022-10-17T05:32:05;14.00;99.90
14600;DHT22;7386;45.586;12.854;2022-10-17T05:34:33;14.00;99.90
14600;DHT22;7386;45.586;12.854;2022-10-17T05:37:01;14.00;99.90
14600;DHT22;7386;45.586;12.854;2022-10-17T05:39:30;14.00;99.90
14600;DHT22;7386;45.586;12.854;2022-10-17T05:41:59;14.00;99.90
14600;DHT22;7386;45.586;12.854;2022-10-17T05:44:27;14.00;99.90
14600;DHT22;7386;45.586;12.854;2022-10-17T05:46:56;14.00;99.90
14600;DHT22;7386;45.586;12.854;2022-10-17T05:49:24;14.00;99.90
14600;DHT22;7386;45.586;12.854;2022-10-17T05:52:09;14.00;99.90
14600;DHT22;7386;45.586;12.854;2022-10-17T05:54:37;14.00;99.90
14600;DHT22;7386;45.586;12.854;2022-10-17T05:57:07;13.90;99.90
14600;DHT22;7386;45.586;12.854;2022-10-17T05:59:35;14.00;99.90
14600;DHT22;7386;45.586;12.854;2022-10-17T06:02:03;14.00;99.90
14600;DHT22;7386;45.586;12.854;2022-10-17T06:04:32;13.90;99.90
14600;DHT22;7386;45.586;12.854;2022-10-17T06:07:00;13.90;99.90
14600;DHT22;7386;45.586;12.854;2022-10-17T06:09:28;14.00;99.90
14600;DHT22;7386;45.586;12.854;2022-10-17T06:11:57;14.00;99.90
14600;DHT22;7386;45.586;12.854;2022-10-17T06:14:26;14.00;99.90
14600;DHT22;7386;45.586;12.854;2022-10-17T06:16:55;14.00;99.90
14600;DHT22;7386;45.586;12.854;2022-10-17T06:19:23;14.00;99.90
14600;DHT22;7386;45.586;12.854;2022-10-17T06:21:51;14.00;99.90
14600;DHT22;7386;45.586;12.854;2022-10-17T06:24:20;14.00;99.90
14600;DHT22;7386;45.586;12.854;2022-10-17T06:26:48;14.00;99.90
14600;DHT22;7386;45.586;12.854;2022-10-17T06:29:16;14.00;99.90
14600;DHT22;7386;45.586;12.854;2022-10-17T06:31:46;14.00;99.90
14600;DHT22;7386;45.586;12.854;2022-10-17T06:34:14;14.00;99.90
14600;DHT22;7386;45.586;12.854;2022-10-17T06:36:43;14.00;99.90
14600;DHT22;7386;45.586;12.854;2022-10-17T06:39:11;14.00;99.90
14600;DHT22;7386;45.586;12.854;2022-10-17T06:41:39;14.10;99.90
14600;DHT22;7386;45.586;12.854;2022-10-17T06:44:10;14.10;99.90
14600;DHT22;7386;45.586;12.854;2022-10-17T06:46:39;14.10;99.90
14600;DHT22;7386;45.586;12.854;2022-10-17T06:49:10;14.20;99.90
14600;DHT22;7386;45.586;12.854;2022-10-17T06:51:38;14.20;99.90
14600;DHT22;7386;45.586;12.854;2022-10-17T06:54:06;14.20;99.90
14600;DHT22;7386;45.586;12.854;2022-10-17T06:56:34;14.30;99.90
14600;DHT22;7386;45.586;12.854;2022-10-17T06:59:02;14.30;99.90
14600;DHT22;7386;45.586;12.854;2022-10-17T07:01:31;14.40;99.90
14600;DHT22;7386;45.586;12.854;2022-10-17T07:04:00;14.40;99.90
14600;DHT22;7386;45.586;12.854;2022-10-17T07:06:29;14.50;99.90
14600;DHT22;7386;45.586;12.854;2022-10-17T07:08:58;14.50;99.90
14600;DHT22;7386;45.586;12.854;2022-10-17T07:11:28;14.50;99.90
14600;DHT22;7386;45.586;12.854;2022-10-17T07:13:56;14.60;99.90
14600;DHT22;7386;45.586;12.854;2022-10-17T07:16:25;14.60;99.90
14600;DHT22;7386;45.586;12.854;2022-10-17T07:18:54;14.70;99.90
14600;DHT22;7386;45.586;12.854;2022-10-17T07:21:22;14.70;99.90
14600;DHT22;7386;45.586;12.854;2022-10-17T07:23:52;14.80;99.90
14600;DHT22;7386;45.586;12.854;2022-10-17T07:26:20;14.80;99.90
14600;DHT22;7386;45.586;12.854;2022-10-17T07:28:51;14.90;99.90
14600;DHT22;7386;45.586;12.854;2022-10-17T07:31:21;14.90;99.90
14600;DHT22;7386;45.586;12.854;2022-10-17T07:33:50;15.00;99.90
14600;DHT22;7386;45.586;12.854;2022-10-17T07:36:18;15.00;99.90
14600;DHT22;7386;45.586;12.854;2022-10-17T07:38:46;15.10;99.90
14600;DHT22;7386;45.586;12.854;2022-10-17T07:41:16;15.20;99.90
14600;DHT22;7386;45.586;12.854;2022-10-17T07:43:47;15.20;99.90
14600;DHT22;7386;45.586;12.854;2022-10-17T07:46:16;15.30;99.90
14600;DHT22;7386;45.586;12.854;2022-10-17T07:48:44;15.40;99.90
14600;DHT22;7386;45.586;12.854;2022-10-17T07:51:12;15.40;99.90
14600;DHT22;7386;45.586;12.854;2022-10-17T07:53:40;15.50;99.90
14600;DHT22;7386;45.586;12.854;2022-10-17T07:56:15;15.50;99.90
14600;DHT22;7386;45.586;12.854;2022-10-17T07:58:44;15.60;99.90
14600;DHT22;7386;45.586;12.854;2022-10-17T08:01:14;15.60;99.90
14600;DHT22;7386;45.586;12.854;2022-10-17T08:03:44;15.70;99.90
14600;DHT22;7386;45.586;12.854;2022-10-17T08:06:12;15.80;99.90
14600;DHT22;7386;45.586;12.854;2022-10-17T08:08:41;15.80;99.90
14600;DHT22;7386;45.586;12.854;2022-10-17T08:11:12;15.90;99.90
14600;DHT22;7386;45.586;12.854;2022-10-17T08:13:42;16.00;99.90
14600;DHT22;7386;45.586;12.854;2022-10-17T08:16:11;16.00;99.90
14600;DHT22;7386;45.586;12.854;2022-10-17T08:18:41;16.10;99.90
14600;DHT22;7386;45.586;12.854;2022-10-17T08:21:11;16.20;99.90
14600;DHT22;7386;45.586;12.854;2022-10-17T08:23:40;16.20;99.90
14600;DHT22;7386;45.586;12.854;2022-10-17T08:26:10;16.30;99.90
14600;DHT22;7386;45.586;12.854;2022-10-17T08:28:41;16.30;99.90
14600;DHT22;7386;45.586;12.854;2022-10-17T08:31:10;16.40;99.90
14600;DHT22;7386;45.586;12.854;2022-10-17T08:33:39;16.40;99.90
14600;DHT22;7386;45.586;12.854;2022-10-17T08:36:08;16.50;99.90
14600;DHT22;7386;45.586;12.854;2022-10-17T08:38:37;16.60;99.90
14600;DHT22;7386;45.586;12.854;2022-10-17T08:41:14;16.60;99.90
14600;DHT22;7386;45.586;12.854;2022-10-17T08:43:57;16.70;99.90
14600;DHT22;7386;45.586;12.854;2022-10-17T08:46:29;16.80;99.90
14600;DHT22;7386;45.586;12.854;2022-10-17T08:49:00;16.90;99.90
14600;DHT22;7386;45.586;12.854;2022-10-17T08:51:33;16.90;99.90
14600;DHT22;7386;45.586;12.854;2022-10-17T08:54:09;17.00;99.90
14600;DHT22;7386;45.586;12.854;2022-10-17T08:56:42;17.10;99.90
14600;DHT22;7386;45.586;12.854;2022-10-17T08:59:26;17.10;99.90
14600;DHT22;7386;45.586;12.854;2022-10-17T09:02:00;17.20;99.90
14600;DHT22;7386;45.586;12.854;2022-10-17T09:07:33;17.30;99.90
14600;DHT22;7386;45.586;12.854;2022-10-17T09:10:09;17.40;99.90
14600;DHT22;7386;45.586;12.854;2022-10-17T09:12:46;17.40;99.90
14600;DHT22;7386;45.586;12.854;2022-10-17T09:15:33;17.50;99.90
14600;DHT22;7386;45.586;12.854;2022-10-17T09:18:08;17.60;99.90
14600;DHT22;7386;45.586;12.854;2022-10-17T09:20:41;17.60;99.90
14600;DHT22;7386;45.586;12.854;2022-10-17T09:23:12;17.70;99.90
14600;DHT22;7386;45.586;12.854;2022-10-17T09:25:43;17.70;99.90
14600;DHT22;7386;45.586;12.854;2022-10-17T09:28:16;17.70;99.90
14600;DHT22;7386;45.586;12.854;2022-10-17T09:30:53;17.80;99.90
14600;DHT22;7386;45.586;12.854;2022-10-17T09:33:25;17.90;99.90
14600;DHT22;7386;45.586;12.854;2022-10-17T09:36:17;17.90;99.90
14600;DHT22;7386;45.586;12.854;2022-10-17T09:38:49;18.00;99.90
14600;DHT22;7386;45.586;12.854;2022-10-17T09:41:20;18.00;99.90
14600;DHT22;7386;45.586;12.854;2022-10-17T09:44:18;18.10;99.90
14600;DHT22;7386;45.586;12.854;2022-10-17T09:47:02;18.10;99.90
14600;DHT22;7386;45.586;12.854;2022-10-17T09:49:34;18.20;99.90
14600;DHT22;7386;45.586;12.854;2022-10-17T09:52:05;18.20;99.90
14600;DHT22;7386;45.586;12.854;2022-10-17T09:54:42;18.30;99.90
14600;DHT22;7386;45.586;12.854;2022-10-17T09:57:12;18.30;99.90
14600;DHT22;7386;45.586;12.854;2022-10-17T09:59:43;18.40;99.90
14600;DHT22;7386;45.586;12.854;2022-10-17T10:02:22;18.40;99.90
14600;DHT22;7386;45.586;12.854;2022-10-17T10:04:55;18.40;99.90
14600;DHT22;7386;45.586;12.854;2022-10-17T10:07:34;18.50;99.90
14600;DHT22;7386;45.586;12.854;2022-10-17T10:10:05;18.50;99.90
14600;DHT22;7386;45.586;12.854;2022-10-17T10:12:35;18.50;99.90
14600;DHT22;7386;45.586;12.854;2022-10-17T10:15:30;18.50;99.90
14600;DHT22;7386;45.586;12.854;2022-10-17T10:18:01;18.50;99.90
14600;DHT22;7386;45.586;12.854;2022-10-17T10:20:32;18.50;99.90
14600;DHT22;7386;45.586;12.854;2022-10-17T10:23:11;18.60;99.90
14600;DHT22;7386;45.586;12.854;2022-10-17T10:25:54;18.60;99.90
14600;DHT22;7386;45.586;12.854;2022-10-17T10:28:25;18.60;99.90
14600;DHT22;7386;45.586;12.854;2022-10-17T10:30:56;18.60;99.90
14600;DHT22;7386;45.586;12.854;2022-10-17T10:33:28;18.70;99.90
14600;DHT22;7386;45.586;12.854;2022-10-17T10:35:58;18.70;99.90
14600;DHT22;7386;45.586;12.854;2022-10-17T10:38:28;18.70;99.90
14600;DHT22;7386;45.586;12.854;2022-10-17T10:41:01;18.70;99.90
14600;DHT22;7386;45.586;12.854;2022-10-17T10:43:34;18.70;99.90
14600;DHT22;7386;45.586;12.854;2022-10-17T10:46:05;18.80;99.90
14600;DHT22;7386;45.586;12.854;2022-10-17T10:48:52;18.80;99.90
14600;DHT22;7386;45.586;12.854;2022-10-17T10:51:23;18.80;99.90
14600;DHT22;7386;45.586;12.854;2022-10-17T10:53:58;18.80;99.90
14600;DHT22;7386;45.586;12.854;2022-10-17T10:56:33;18.80;99.90
14600;DHT22;7386;45.586;12.854;2022-10-17T10:59:10;18.90;99.90
14600;DHT22;7386;45.586;12.854;2022-10-17T11:01:46;18.90;99.90
14600;DHT22;7386;45.586;12.854;2022-10-17T11:04:27;18.90;99.90
14600;DHT22;7386;45.586;12.854;2022-10-17T11:07:02;18.90;99.90
14600;DHT22;7386;45.586;12.854;2022-10-17T11:09:41;18.90;99.90
14600;DHT22;7386;45.586;12.854;2022-10-17T11:12:17;19.00;99.90
14600;DHT22;7386;45.586;12.854;2022-10-17T11:14:50;19.00;99.90
14600;DHT22;7386;45.586;12.854;2022-10-17T11:17:27;19.00;99.90
14600;DHT22;7386;45.586;12.854;2022-10-17T11:20:05;19.00;99.90
14600;DHT22;7386;45.586;12.854;2022-10-17T11:22:41;19.00;99.90
14600;DHT22;7386;45.586;12.854;2022-10-17T11:25:20;19.10;99.90
14600;DHT22;7386;45.586;12.854;2022-10-17T11:27:49;19.10;99.90
14600;DHT22;7386;45.586;12.854;2022-10-17T11:30:18;19.10;99.90
14600;DHT22;7386;45.586;12.854;2022-10-17T11:32:52;19.10;99.90
14600;DHT22;7386;45.586;12.854;2022-10-17T11:35:24;19.10;99.90
14600;DHT22;7386;45.586;12.854;2022-10-17T11:38:00;19.20;99.90
14600;DHT22;7386;45.586;12.854;2022-10-17T11:40:34;19.20;99.90
14600;DHT22;7386;45.586;12.854;2022-10-17T11:43:09;19.20;99.90
14600;DHT22;7386;45.586;12.854;2022-10-17T11:45:40;19.30;99.90
14600;DHT22;7386;45.586;12.854;2022-10-17T11:48:12;19.30;99.90
14600;DHT22;7386;45.586;12.854;2022-10-17T11:50:47;19.30;99.90
14600;DHT22;7386;45.586;12.854;2022-10-17T11:53:45;19.30;99.90
14600;DHT22;7386;45.586;12.854;2022-10-17T11:56:18;19.40;99.90
14600;DHT22;7386;45.586;12.854;2022-10-17T11:58:53;19.40;99.90
14600;DHT22;7386;45.586;12.854;2022-10-17T12:01:30;19.40;99.90
14600;DHT22;7386;45.586;12.854;2022-10-17T12:04:10;19.40;99.90
14600;DHT22;7386;45.586;12.854;2022-10-17T12:06:57;19.20;99.90
14600;DHT22;7386;45.586;12.854;2022-10-17T12:09:36;19.50;99.90
14600;DHT22;7386;45.586;12.854;2022-10-17T12:12:06;19.50;99.90
14600;DHT22;7386;45.586;12.854;2022-10-17T12:14:44;19.50;99.90
14600;DHT22;7386;45.586;12.854;2022-10-17T12:17:27;19.60;99.90
14600;DHT22;7386;45.586;12.854;2022-10-17T12:20:24;19.60;99.90
14600;DHT22;7386;45.586;12.854;2022-10-17T12:22:56;19.60;99.90
14600;DHT22;7386;45.586;12.854;2022-10-17T12:25:26;19.60;99.90
14600;DHT22;7386;45.586;12.854;2022-10-17T12:28:14;19.60;99.90
14600;DHT22;7386;45.586;12.854;2022-10-17T12:30:55;19.60;99.90
14600;DHT22;7386;45.586;12.854;2022-10-17T12:33:31;19.70;99.90
14600;DHT22;7386;45.586;12.854;2022-10-17T12:39:41;19.70;99.90
14600;DHT22;7386;45.586;12.854;2022-10-17T12:45:44;19.70;99.90
14600;DHT22;7386;45.586;12.854;2022-10-17T12:51:02;19.70;99.90
14600;DHT22;7386;45.586;12.854;2022-10-17T12:53:57;19.70;99.90
14600;DHT22;7386;45.586;12.854;2022-10-17T12:56:37;19.70;99.90
14600;DHT22;7386;45.586;12.854;2022-10-17T12:59:11;19.70;99.90
14600;DHT22;7386;45.586;12.854;2022-10-17T13:01:43;19.70;99.90
14600;DHT22;7386;45.586;12.854;2022-10-17T13:04:13;19.80;99.90
14600;DHT22;7386;45.586;12.854;2022-10-17T13:06:44;19.70;99.90
14600;DHT22;7386;45.586;12.854;2022-10-17T13:09:24;19.80;99.90
14600;DHT22;7386;45.586;12.854;2022-10-17T13:11:56;19.80;99.90
14600;DHT22;7386;45.586;12.854;2022-10-17T13:14:26;19.80;99.90
14600;DHT22;7386;45.586;12.854;2022-10-17T13:16:56;19.30;99.90
14600;DHT22;7386;45.586;12.854;2022-10-17T13:19:26;19.80;99.90
14600;DHT22;7386;45.586;12.854;2022-10-17T13:21:57;19.80;99.90
14600;DHT22;7386;45.586;12.854;2022-10-17T13:24:34;19.80;99.90
14600;DHT22;7386;45.586;12.854;2022-10-17T13:27:05;19.70;99.90
14600;DHT22;7386;45.586;12.854;2022-10-17T13:29:47;19.80;99.90
14600;DHT22;7386;45.586;12.854;2022-10-17T13:32:16;19.70;99.90
14600;DHT22;7386;45.586;12.854;2022-10-17T13:34:44;19.70;99.90
14600;DHT22;7386;45.586;12.854;2022-10-17T13:37:14;19.70;99.90
14600;DHT22;7386;45.586;12.854;2022-10-17T13:39:44;19.70;99.90
14600;DHT22;7386;45.586;12.854;2022-10-17T13:42:38;19.70;99.90
14600;DHT22;7386;45.586;12.854;2022-10-17T13:45:16;19.80;99.90
14600;DHT22;7386;45.586;12.854;2022-10-17T13:47:45;19.70;99.90
14600;DHT22;7386;45.586;12.854;2022-10-17T13:50:22;19.70;99.90
14600;DHT22;7386;45.586;12.854;2022-10-17T13:53:19;19.70;99.90
14600;DHT22;7386;45.586;12.854;2022-10-17T13:55:52;19.80;99.90
14600;DHT22;7386;45.586;12.854;2022-10-17T13:58:46;19.70;99.90
14600;DHT22;7386;45.586;12.854;2022-10-17T14:01:15;19.80;99.90
14600;DHT22;7386;45.586;12.854;2022-10-17T14:03:44;19.80;99.90
14600;DHT22;7386;45.586;12.854;2022-10-17T14:06:17;19.70;99.90
14600;DHT22;7386;45.586;12.854;2022-10-17T14:08:53;19.80;99.90
14600;DHT22;7386;45.586;12.854;2022-10-17T14:11:26;19.80;99.90
14600;DHT22;7386;45.586;12.854;2022-10-17T14:13:58;19.90;99.90
14600;DHT22;7386;45.586;12.854;2022-10-17T14:16:34;19.80;99.90
14600;DHT22;7386;45.586;12.854;2022-10-17T14:19:04;19.70;99.90
14600;DHT22;7386;45.586;12.854;2022-10-17T14:21:32;19.70;99.90
14600;DHT22;7386;45.586;12.854;2022-10-17T14:24:26;19.70;99.90
14600;DHT22;7386;45.586;12.854;2022-10-17T14:26:57;19.70;99.90
14600;DHT22;7386;45.586;12.854;2022-10-17T14:29:29;19.60;99.90
14600;DHT22;7386;45.586;12.854;2022-10-17T14:32:00;19.60;99.90
14600;DHT22;7386;45.586;12.854;2022-10-17T14:34:31;19.60;99.90
14600;DHT22;7386;45.586;12.854;2022-10-17T14:37:01;19.60;99.90
14600;DHT22;7386;45.586;12.854;2022-10-17T14:39:35;19.60;99.90
14600;DHT22;7386;45.586;12.854;2022-10-17T14:42:03;19.60;99.90
14600;DHT22;7386;45.586;12.854;2022-10-17T14:44:34;19.60;99.90
14600;DHT22;7386;45.586;12.854;2022-10-17T14:47:04;19.60;99.90
14600;DHT22;7386;45.586;12.854;2022-10-17T14:50:03;19.50;99.90
14600;DHT22;7386;45.586;12.854;2022-10-17T14:52:32;19.60;99.90
14600;DHT22;7386;45.586;12.854;2022-10-17T14:55:20;19.60;99.90
14600;DHT22;7386;45.586;12.854;2022-10-17T14:57:49;19.50;99.90
14600;DHT22;7386;45.586;12.854;2022-10-17T15:00:19;19.50;99.90
14600;DHT22;7386;45.586;12.854;2022-10-17T15:02:49;19.50;99.90
14600;DHT22;7386;45.586;12.854;2022-10-17T15:05:18;19.50;99.90
14600;DHT22;7386;45.586;12.854;2022-10-17T15:07:46;19.50;99.90
14600;DHT22;7386;45.586;12.854;2022-10-17T15:10:28;19.50;99.90
14600;DHT22;7386;45.586;12.854;2022-10-17T15:12:58;19.50;99.90
14600;DHT22;7386;45.586;12.854;2022-10-17T15:15:48;19.50;99.90
14600;DHT22;7386;45.586;12.854;2022-10-17T15:18:18;19.50;99.90
14600;DHT22;7386;45.586;12.854;2022-10-17T15:20:46;19.50;99.90
14600;DHT22;7386;45.586;12.854;2022-10-17T15:23:30;19.50;99.90
14600;DHT22;7386;45.586;12.854;2022-10-17T15:26:00;19.50;99.90
14600;DHT22;7386;45.586;12.854;2022-10-17T15:28:28;19.50;99.90
14600;DHT22;7386;45.586;12.854;2022-10-17T15:30:58;19.50;99.90
14600;DHT22;7386;45.586;12.854;2022-10-17T15:33:26;19.50;99.90
14600;DHT22;7386;45.586;12.854;2022-10-17T15:35:54;19.40;99.90
14600;DHT22;7386;45.586;12.854;2022-10-17T15:38:23;19.40;99.90
14600;DHT22;7386;45.586;12.854;2022-10-17T15:40:51;19.50;99.90
14600;DHT22;7386;45.586;12.854;2022-10-17T15:43:20;19.40;99.90
14600;DHT22;7386;45.586;12.854;2022-10-17T15:45:48;19.40;99.90
14600;DHT22;7386;45.586;12.854;2022-10-17T15:48:20;19.40;99.90
14600;DHT22;7386;45.586;12.854;2022-10-17T15:50:51;19.40;99.90
14600;DHT22;7386;45.586;12.854;2022-10-17T15:53:19;19.40;99.90
14600;DHT22;7386;45.586;12.854;2022-10-17T15:55:48;19.40;99.90
14600;DHT22;7386;45.586;12.854;2022-10-17T15:58:17;19.30;99.90
14600;DHT22;7386;45.586;12.854;2022-10-17T16:00:47;19.30;99.90
14600;DHT22;7386;45.586;12.854;2022-10-17T16:03:15;19.30;99.90
14600;DHT22;7386;45.586;12.854;2022-10-17T16:05:45;19.30;99.90
14600;DHT22;7386;45.586;12.854;2022-10-17T16:08:13;19.30;99.90
14600;DHT22;7386;45.586;12.854;2022-10-17T16:10:41;19.30;99.90
14600;DHT22;7386;45.586;12.854;2022-10-17T16:13:13;19.20;99.90
14600;DHT22;7386;45.586;12.854;2022-10-17T16:15:43;19.20;99.90
14600;DHT22;7386;45.586;12.854;2022-10-17T16:18:11;19.20;99.90
14600;DHT22;7386;45.586;12.854;2022-10-17T16:20:39;19.20;99.90